LHA14L EKCH-LOWW
Flight info
| Callsign | LHA14L |
|---|---|
| Flight time | 1h 18m |
| Altitude | 39000 |
| Route | SALLO M44 KOGIM M725 HDO DCT EVIKU DCT BITSI DCT MIKOV MIKOV8W |
| Aircraft | A320/M-SDE3FGHIRWY/LB1 |
Departure
| Time | 2026-05-06 17:09 |
|---|---|
| Airport | Copenhagen Kastrup Airport (EKCH) |
Arrival
| Time | 2026-05-06 18:27 |
|---|---|
| Airport | Vienna International Airport (LOWW) |
| Time | Latitude | Longitude | Altitude | Speed | Heading |
|---|---|---|---|---|---|
| 2026-05-06 16:38 | 55.62707 | 12.64171 | 24 ft | 0 kts | 32° |
| 2026-05-06 16:58 | 55.62706 | 12.64171 | 24 ft | 0 kts | 32° |
| 2026-05-06 16:58 | 55.62689 | 12.64151 | 27 ft | 4 kts | 36° |
| 2026-05-06 16:58 | 55.62668 | 12.64120 | 24 ft | 4 kts | 47° |
| 2026-05-06 16:59 | 55.62653 | 12.64083 | 24 ft | 4 kts | 83° |
| 2026-05-06 16:59 | 55.62654 | 12.64059 | 27 ft | 0 kts | 123° |
| 2026-05-06 17:01 | 55.62632 | 12.64118 | 24 ft | 9 kts | 123° |
| 2026-05-06 17:01 | 55.62591 | 12.64210 | 24 ft | 9 kts | 152° |
| 2026-05-06 17:02 | 55.62527 | 12.64207 | 26 ft | 10 kts | 151° |
| 2026-05-06 17:02 | 55.62480 | 12.64318 | 25 ft | 13 kts | 128° |
| 2026-05-06 17:02 | 55.62421 | 12.64451 | 24 ft | 15 kts | 127° |
| 2026-05-06 17:02 | 55.62360 | 12.64613 | 24 ft | 17 kts | 124° |
| 2026-05-06 17:03 | 55.62312 | 12.64742 | 24 ft | 9 kts | 123° |
| 2026-05-06 17:03 | 55.62256 | 12.64793 | 24 ft | 11 kts | 178° |
| 2026-05-06 17:03 | 55.62211 | 12.64769 | 24 ft | 0 kts | 212° |
| 2026-05-06 17:04 | 55.62197 | 12.64754 | 24 ft | 8 kts | 212° |
| 2026-05-06 17:04 | 55.62132 | 12.64679 | 26 ft | 13 kts | 213° |
| 2026-05-06 17:05 | 55.62047 | 12.64581 | 24 ft | 16 kts | 213° |
| 2026-05-06 17:05 | 55.61945 | 12.64505 | 24 ft | 17 kts | 185° |
| 2026-05-06 17:05 | 55.61820 | 12.64535 | 24 ft | 19 kts | 169° |
| 2026-05-06 17:05 | 55.61704 | 12.64567 | 24 ft | 16 kts | 183° |
| 2026-05-06 17:06 | 55.61600 | 12.64477 | 25 ft | 18 kts | 213° |
| 2026-05-06 17:06 | 55.61490 | 12.64351 | 24 ft | 20 kts | 213° |
| 2026-05-06 17:06 | 55.61367 | 12.64210 | 24 ft | 22 kts | 213° |
| 2026-05-06 17:06 | 55.61234 | 12.64057 | 26 ft | 24 kts | 213° |
| 2026-05-06 17:07 | 55.61099 | 12.63901 | 24 ft | 21 kts | 213° |
| 2026-05-06 17:07 | 55.60972 | 12.63755 | 24 ft | 23 kts | 213° |
| 2026-05-06 17:07 | 55.60862 | 12.63629 | 25 ft | 13 kts | 212° |
| 2026-05-06 17:07 | 55.60787 | 12.63604 | 26 ft | 12 kts | 148° |
| 2026-05-06 17:08 | 55.60726 | 12.63722 | 24 ft | 14 kts | 131° |
| 2026-05-06 17:08 | 55.60678 | 12.63831 | 28 ft | 9 kts | 112° |
| 2026-05-06 17:08 | 55.60716 | 12.63929 | 29 ft | 16 kts | 41° |
| 2026-05-06 17:08 | 55.61006 | 12.64377 | 23 ft | 95 kts | 41° |
| 2026-05-06 17:09 | 55.61664 | 12.65395 | 27 ft | 154 kts | 41° |
| 2026-05-06 17:09 | 55.62489 | 12.66651 | 665 ft | 155 kts | 45° |
| 2026-05-06 17:09 | 55.63300 | 12.67912 | 1490 ft | 158 kts | 39° |
| 2026-05-06 17:09 | 55.64174 | 12.69271 | 1927 ft | 178 kts | 39° |
| 2026-05-06 17:10 | 55.65172 | 12.70815 | 2301 ft | 203 kts | 39° |
| 2026-05-06 17:10 | 55.66312 | 12.72534 | 2815 ft | 228 kts | 38° |
| 2026-05-06 17:10 | 55.67580 | 12.74422 | 3510 ft | 245 kts | 39° |
| 2026-05-06 17:10 | 55.68865 | 12.76468 | 4482 ft | 253 kts | 48° |
| 2026-05-06 17:11 | 55.69730 | 12.79223 | 5440 ft | 262 kts | 71° |
| 2026-05-06 17:11 | 55.69885 | 12.82482 | 6383 ft | 273 kts | 97° |
| 2026-05-06 17:11 | 55.69168 | 12.85630 | 7241 ft | 283 kts | 127° |
| 2026-05-06 17:11 | 55.67659 | 12.87867 | 8099 ft | 287 kts | 156° |
| 2026-05-06 17:12 | 55.65798 | 12.89184 | 9066 ft | 290 kts | 162° |
| 2026-05-06 17:12 | 55.63900 | 12.90454 | 10028 ft | 294 kts | 163° |
| 2026-05-06 17:12 | 55.61926 | 12.91766 | 10523 ft | 315 kts | 163° |
| 2026-05-06 17:12 | 55.59830 | 12.93160 | 10859 ft | 338 kts | 162° |
| 2026-05-06 17:13 | 55.57587 | 12.94669 | 11473 ft | 349 kts | 162° |
| 2026-05-06 17:13 | 55.55271 | 12.96241 | 12285 ft | 355 kts | 162° |
| 2026-05-06 17:13 | 55.52985 | 12.97795 | 13085 ft | 359 kts | 163° |
| 2026-05-06 17:13 | 55.50640 | 12.99391 | 13863 ft | 363 kts | 163° |
| 2026-05-06 17:14 | 55.48269 | 13.01002 | 14594 ft | 367 kts | 163° |
| 2026-05-06 17:14 | 55.45870 | 13.02626 | 15325 ft | 371 kts | 163° |
| 2026-05-06 17:14 | 55.43450 | 13.04254 | 16059 ft | 374 kts | 163° |
| 2026-05-06 17:14 | 55.41006 | 13.05894 | 16775 ft | 378 kts | 163° |
| 2026-05-06 17:15 | 55.38538 | 13.07546 | 17483 ft | 381 kts | 164° |
| 2026-05-06 17:15 | 55.36044 | 13.09212 | 18184 ft | 385 kts | 164° |
| 2026-05-06 17:15 | 55.33531 | 13.10891 | 18781 ft | 388 kts | 164° |
| 2026-05-06 17:15 | 55.30996 | 13.12586 | 19380 ft | 391 kts | 164° |
| 2026-05-06 17:16 | 55.28442 | 13.14290 | 19973 ft | 394 kts | 164° |
| 2026-05-06 17:16 | 55.25864 | 13.16008 | 20547 ft | 398 kts | 164° |
| 2026-05-06 17:16 | 55.23266 | 13.17744 | 21113 ft | 401 kts | 164° |
| 2026-05-06 17:16 | 55.20649 | 13.19492 | 21680 ft | 404 kts | 164° |
| 2026-05-06 17:17 | 55.18007 | 13.21249 | 22231 ft | 408 kts | 164° |
| 2026-05-06 17:17 | 55.15343 | 13.23011 | 22772 ft | 411 kts | 164° |
| 2026-05-06 17:17 | 55.12658 | 13.24785 | 23295 ft | 414 kts | 164° |
| 2026-05-06 17:17 | 55.09950 | 13.26572 | 23774 ft | 417 kts | 164° |
| 2026-05-06 17:18 | 55.07225 | 13.28373 | 24237 ft | 420 kts | 164° |
| 2026-05-06 17:18 | 55.04486 | 13.30184 | 24674 ft | 422 kts | 164° |
| 2026-05-06 17:18 | 55.01732 | 13.32001 | 24893 ft | 423 kts | 164° |
| 2026-05-06 17:18 | 54.98981 | 13.33812 | 24939 ft | 423 kts | 164° |
| 2026-05-06 17:19 | 54.96230 | 13.35618 | 24941 ft | 422 kts | 164° |
| 2026-05-06 17:19 | 54.93480 | 13.37424 | 24943 ft | 422 kts | 165° |
| 2026-05-06 17:19 | 54.90678 | 13.38850 | 24940 ft | 417 kts | 174° |
| 2026-05-06 17:19 | 54.87827 | 13.39650 | 24939 ft | 415 kts | 176° |
| 2026-05-06 17:20 | 54.84970 | 13.40406 | 25006 ft | 417 kts | 176° |
| 2026-05-06 17:20 | 54.82093 | 13.41178 | 25467 ft | 419 kts | 176° |
| 2026-05-06 17:20 | 54.79201 | 13.41957 | 25922 ft | 422 kts | 176° |
| 2026-05-06 17:20 | 54.76296 | 13.42739 | 26359 ft | 424 kts | 176° |
| 2026-05-06 17:21 | 54.73374 | 13.43521 | 26793 ft | 426 kts | 176° |
| 2026-05-06 17:21 | 54.70440 | 13.44309 | 27229 ft | 428 kts | 176° |
| 2026-05-06 17:21 | 54.67493 | 13.45105 | 27667 ft | 430 kts | 176° |
| 2026-05-06 17:21 | 54.64534 | 13.45902 | 28092 ft | 431 kts | 176° |
| 2026-05-06 17:22 | 54.61562 | 13.46700 | 28500 ft | 433 kts | 176° |
| 2026-05-06 17:22 | 54.58577 | 13.47496 | 28898 ft | 435 kts | 177° |
| 2026-05-06 17:22 | 54.55582 | 13.48291 | 29284 ft | 437 kts | 177° |
| 2026-05-06 17:22 | 54.52573 | 13.49091 | 29667 ft | 438 kts | 176° |
| 2026-05-06 17:23 | 54.49555 | 13.49894 | 30037 ft | 440 kts | 177° |
| 2026-05-06 17:23 | 54.46525 | 13.50681 | 30347 ft | 441 kts | 177° |
| 2026-05-06 17:23 | 54.43481 | 13.51449 | 30650 ft | 443 kts | 177° |
| 2026-05-06 17:23 | 54.40434 | 13.52208 | 31045 ft | 442 kts | 177° |
| 2026-05-06 17:24 | 54.37398 | 13.52964 | 31466 ft | 440 kts | 177° |
| 2026-05-06 17:24 | 54.34371 | 13.53719 | 31884 ft | 439 kts | 178° |
| 2026-05-06 17:24 | 54.31352 | 13.54476 | 32296 ft | 438 kts | 178° |
| 2026-05-06 17:24 | 54.28377 | 13.55235 | 32705 ft | 437 kts | 177° |
| 2026-05-06 17:25 | 54.25371 | 13.56019 | 33114 ft | 436 kts | 177° |
| 2026-05-06 17:25 | 54.22372 | 13.56812 | 33526 ft | 435 kts | 177° |
| 2026-05-06 17:25 | 54.19384 | 13.57608 | 33951 ft | 434 kts | 178° |
| 2026-05-06 17:25 | 54.16404 | 13.58397 | 34300 ft | 433 kts | 178° |
| 2026-05-06 17:26 | 54.13424 | 13.59177 | 34633 ft | 433 kts | 178° |
| 2026-05-06 17:26 | 54.10449 | 13.59947 | 34953 ft | 432 kts | 178° |
| 2026-05-06 17:26 | 54.07477 | 13.60712 | 35262 ft | 432 kts | 177° |
| 2026-05-06 17:26 | 54.04502 | 13.61477 | 35561 ft | 432 kts | 177° |
| 2026-05-06 17:27 | 54.01526 | 13.62239 | 35832 ft | 432 kts | 177° |
| 2026-05-06 17:27 | 53.98553 | 13.62998 | 36113 ft | 433 kts | 177° |
| 2026-05-06 17:27 | 53.95575 | 13.63761 | 36383 ft | 433 kts | 177° |
| 2026-05-06 17:27 | 53.92597 | 13.64529 | 36645 ft | 433 kts | 176° |
| 2026-05-06 17:28 | 53.89627 | 13.65405 | 36926 ft | 434 kts | 174° |
| 2026-05-06 17:28 | 53.86662 | 13.66430 | 37190 ft | 435 kts | 173° |
| 2026-05-06 17:28 | 53.83706 | 13.67545 | 37461 ft | 436 kts | 172° |
| 2026-05-06 17:28 | 53.80753 | 13.68692 | 37718 ft | 436 kts | 172° |
| 2026-05-06 17:29 | 53.77797 | 13.69834 | 37986 ft | 435 kts | 172° |
| 2026-05-06 17:29 | 53.74842 | 13.70944 | 38221 ft | 435 kts | 173° |
| 2026-05-06 17:29 | 53.71882 | 13.72018 | 38454 ft | 435 kts | 173° |
| 2026-05-06 17:29 | 53.68921 | 13.73070 | 38659 ft | 435 kts | 173° |
| 2026-05-06 17:30 | 53.65953 | 13.74114 | 38810 ft | 436 kts | 173° |
| 2026-05-06 17:30 | 53.60027 | 13.76206 | 38883 ft | 437 kts | 173° |
| 2026-05-06 17:31 | 53.54047 | 13.78332 | 38876 ft | 438 kts | 173° |
| 2026-05-06 17:31 | 53.48088 | 13.80456 | 38871 ft | 438 kts | 173° |
| 2026-05-06 17:32 | 53.42126 | 13.82568 | 38870 ft | 438 kts | 173° |
| 2026-05-06 17:32 | 53.36156 | 13.84669 | 38865 ft | 438 kts | 173° |
| 2026-05-06 17:33 | 53.30183 | 13.86777 | 38865 ft | 439 kts | 173° |
| 2026-05-06 17:33 | 53.24210 | 13.88884 | 38862 ft | 439 kts | 173° |
| 2026-05-06 17:34 | 53.19242 | 13.90628 | 38863 ft | 439 kts | 173° |
| 2026-05-06 17:34 | 53.12258 | 13.92182 | 38862 ft | 435 kts | 178° |
| 2026-05-06 17:35 | 53.06238 | 13.93325 | 38861 ft | 435 kts | 178° |
| 2026-05-06 17:35 | 53.01193 | 13.94295 | 38863 ft | 436 kts | 178° |
| 2026-05-06 17:36 | 52.92204 | 13.96037 | 38941 ft | 435 kts | 178° |
| 2026-05-06 17:36 | 52.86242 | 13.97244 | 38858 ft | 428 kts | 176° |
| 2026-05-06 17:37 | 52.80344 | 13.98529 | 38845 ft | 428 kts | 176° |
| 2026-05-06 17:37 | 52.74441 | 13.99805 | 38841 ft | 428 kts | 176° |
| 2026-05-06 17:38 | 52.68527 | 14.01062 | 38835 ft | 429 kts | 176° |
| 2026-05-06 17:38 | 52.62603 | 14.02315 | 38850 ft | 429 kts | 176° |
| 2026-05-06 17:39 | 52.56671 | 14.03574 | 38846 ft | 430 kts | 176° |
| 2026-05-06 17:39 | 52.50730 | 14.04817 | 38845 ft | 431 kts | 176° |
| 2026-05-06 17:40 | 52.44818 | 14.06052 | 38845 ft | 432 kts | 176° |
| 2026-05-06 17:40 | 52.38854 | 14.07303 | 38842 ft | 432 kts | 176° |
| 2026-05-06 17:41 | 52.32888 | 14.08550 | 38837 ft | 432 kts | 176° |
| 2026-05-06 17:41 | 52.26927 | 14.09797 | 38837 ft | 432 kts | 176° |
| 2026-05-06 17:42 | 52.20950 | 14.11058 | 38841 ft | 432 kts | 176° |
| 2026-05-06 17:42 | 52.14989 | 14.12302 | 38837 ft | 431 kts | 176° |
| 2026-05-06 17:43 | 52.09040 | 14.13524 | 38835 ft | 431 kts | 176° |
| 2026-05-06 17:43 | 52.03100 | 14.14736 | 38830 ft | 430 kts | 176° |
| 2026-05-06 17:44 | 51.97163 | 14.15950 | 38831 ft | 430 kts | 176° |
| 2026-05-06 17:44 | 51.91232 | 14.17165 | 38830 ft | 429 kts | 176° |
| 2026-05-06 17:45 | 51.85312 | 14.18373 | 38822 ft | 429 kts | 176° |
| 2026-05-06 17:45 | 51.79400 | 14.19577 | 38822 ft | 428 kts | 176° |
| 2026-05-06 17:46 | 51.73496 | 14.20777 | 38814 ft | 427 kts | 176° |
| 2026-05-06 17:46 | 51.67600 | 14.21974 | 38814 ft | 427 kts | 176° |
| 2026-05-06 17:47 | 51.61718 | 14.23168 | 38808 ft | 426 kts | 176° |
| 2026-05-06 17:47 | 51.55834 | 14.24351 | 38803 ft | 425 kts | 176° |
| 2026-05-06 17:48 | 51.49963 | 14.25530 | 38799 ft | 425 kts | 176° |
| 2026-05-06 17:48 | 51.44105 | 14.26705 | 38793 ft | 424 kts | 176° |
| 2026-05-06 17:49 | 51.38254 | 14.27876 | 38791 ft | 423 kts | 177° |
| 2026-05-06 17:49 | 51.32412 | 14.29040 | 38786 ft | 423 kts | 177° |
| 2026-05-06 17:50 | 51.26576 | 14.30209 | 38785 ft | 423 kts | 176° |
| 2026-05-06 17:50 | 51.23716 | 14.31365 | 38788 ft | 430 kts | 161° |
| 2026-05-06 17:50 | 51.21080 | 14.33705 | 38780 ft | 436 kts | 152° |
| 2026-05-06 17:51 | 51.15993 | 14.39002 | 38770 ft | 437 kts | 152° |
| 2026-05-06 17:51 | 51.10924 | 14.44345 | 38777 ft | 437 kts | 152° |
| 2026-05-06 17:52 | 51.05843 | 14.49659 | 38774 ft | 437 kts | 152° |
| 2026-05-06 17:52 | 51.00744 | 14.54945 | 38774 ft | 437 kts | 152° |
| 2026-05-06 17:53 | 50.95644 | 14.60206 | 38771 ft | 437 kts | 152° |
| 2026-05-06 17:53 | 50.90579 | 14.65429 | 38775 ft | 437 kts | 152° |
| 2026-05-06 17:54 | 50.85485 | 14.70679 | 38770 ft | 437 kts | 152° |
| 2026-05-06 17:54 | 50.80394 | 14.75908 | 38774 ft | 436 kts | 152° |
| 2026-05-06 17:55 | 50.75300 | 14.81128 | 38776 ft | 436 kts | 152° |
| 2026-05-06 17:55 | 50.70208 | 14.86333 | 38772 ft | 436 kts | 153° |
| 2026-05-06 17:56 | 50.65114 | 14.91527 | 38770 ft | 436 kts | 153° |
| 2026-05-06 17:56 | 50.60021 | 14.96709 | 38778 ft | 436 kts | 153° |
| 2026-05-06 17:57 | 50.54925 | 15.01865 | 38776 ft | 436 kts | 153° |
| 2026-05-06 17:57 | 50.49825 | 15.07016 | 38771 ft | 435 kts | 153° |
| 2026-05-06 17:58 | 50.44728 | 15.12158 | 38768 ft | 435 kts | 153° |
| 2026-05-06 17:58 | 50.39630 | 15.17282 | 38771 ft | 435 kts | 153° |
| 2026-05-06 17:59 | 50.34528 | 15.22397 | 38762 ft | 435 kts | 153° |
| 2026-05-06 17:59 | 50.29427 | 15.27503 | 38766 ft | 435 kts | 153° |
| 2026-05-06 18:00 | 50.24322 | 15.32593 | 38759 ft | 436 kts | 153° |
| 2026-05-06 18:00 | 50.19213 | 15.37691 | 38756 ft | 436 kts | 153° |
| 2026-05-06 18:01 | 50.14102 | 15.42779 | 38753 ft | 436 kts | 153° |
| 2026-05-06 18:01 | 50.11544 | 15.45320 | 38585 ft | 436 kts | 153° |
| 2026-05-06 18:01 | 50.08984 | 15.47850 | 38334 ft | 435 kts | 153° |
| 2026-05-06 18:02 | 50.06431 | 15.50367 | 37982 ft | 434 kts | 154° |
| 2026-05-06 18:02 | 50.03880 | 15.52875 | 37649 ft | 434 kts | 154° |
| 2026-05-06 18:02 | 50.01326 | 15.55383 | 37304 ft | 434 kts | 154° |
| 2026-05-06 18:02 | 49.98771 | 15.57892 | 36865 ft | 434 kts | 154° |
| 2026-05-06 18:03 | 49.96214 | 15.60400 | 36375 ft | 435 kts | 154° |
| 2026-05-06 18:03 | 49.93655 | 15.62911 | 35894 ft | 436 kts | 154° |
| 2026-05-06 18:03 | 49.91095 | 15.65424 | 35440 ft | 437 kts | 154° |
| 2026-05-06 18:03 | 49.88523 | 15.67948 | 34982 ft | 437 kts | 155° |
| 2026-05-06 18:04 | 49.85954 | 15.70472 | 34536 ft | 437 kts | 155° |
| 2026-05-06 18:04 | 49.83388 | 15.72984 | 34094 ft | 437 kts | 155° |
| 2026-05-06 18:04 | 49.80841 | 15.75468 | 33659 ft | 438 kts | 156° |
| 2026-05-06 18:04 | 49.78262 | 15.77978 | 33155 ft | 438 kts | 156° |
| 2026-05-06 18:05 | 49.75680 | 15.80486 | 32660 ft | 439 kts | 155° |
| 2026-05-06 18:05 | 49.73088 | 15.83004 | 32178 ft | 441 kts | 155° |
| 2026-05-06 18:05 | 49.70487 | 15.85528 | 31704 ft | 442 kts | 155° |
| 2026-05-06 18:05 | 49.67871 | 15.88058 | 31233 ft | 444 kts | 155° |
| 2026-05-06 18:06 | 49.65247 | 15.90593 | 30778 ft | 446 kts | 155° |
| 2026-05-06 18:06 | 49.62615 | 15.93135 | 30328 ft | 448 kts | 155° |
| 2026-05-06 18:06 | 49.59967 | 15.95695 | 29888 ft | 449 kts | 154° |
| 2026-05-06 18:06 | 49.57329 | 15.98248 | 29382 ft | 447 kts | 154° |
| 2026-05-06 18:07 | 49.54706 | 16.00785 | 28875 ft | 444 kts | 154° |
| 2026-05-06 18:07 | 49.52101 | 16.03298 | 28373 ft | 440 kts | 154° |
| 2026-05-06 18:07 | 49.49518 | 16.05783 | 27883 ft | 436 kts | 154° |
| 2026-05-06 18:07 | 49.46956 | 16.08244 | 27405 ft | 433 kts | 154° |
| 2026-05-06 18:08 | 49.44413 | 16.10680 | 26926 ft | 429 kts | 154° |
| 2026-05-06 18:08 | 49.41889 | 16.13093 | 26470 ft | 425 kts | 154° |
| 2026-05-06 18:08 | 49.39386 | 16.15481 | 26010 ft | 422 kts | 154° |
| 2026-05-06 18:08 | 49.36900 | 16.17852 | 25561 ft | 419 kts | 154° |
| 2026-05-06 18:09 | 49.34435 | 16.20198 | 25119 ft | 416 kts | 154° |
| 2026-05-06 18:09 | 49.31985 | 16.22531 | 24683 ft | 413 kts | 154° |
| 2026-05-06 18:09 | 49.29497 | 16.24628 | 24255 ft | 405 kts | 160° |
| 2026-05-06 18:09 | 49.26964 | 16.26505 | 23827 ft | 403 kts | 159° |
| 2026-05-06 18:10 | 49.24453 | 16.28367 | 23415 ft | 400 kts | 159° |
| 2026-05-06 18:10 | 49.21954 | 16.30217 | 22931 ft | 398 kts | 159° |
| 2026-05-06 18:10 | 49.19473 | 16.32055 | 22446 ft | 395 kts | 159° |
| 2026-05-06 18:10 | 49.17007 | 16.33883 | 21967 ft | 393 kts | 159° |
| 2026-05-06 18:11 | 49.14559 | 16.35696 | 21488 ft | 390 kts | 159° |
| 2026-05-06 18:11 | 49.12943 | 16.36888 | 21175 ft | 388 kts | 159° |
| 2026-05-06 18:11 | 49.09706 | 16.39266 | 20557 ft | 385 kts | 159° |
| 2026-05-06 18:11 | 49.07301 | 16.41031 | 20086 ft | 382 kts | 159° |
| 2026-05-06 18:12 | 49.04904 | 16.42757 | 19640 ft | 378 kts | 162° |
| 2026-05-06 18:12 | 49.02410 | 16.43721 | 19138 ft | 365 kts | 178° |
| 2026-05-06 18:12 | 48.99912 | 16.43541 | 18604 ft | 357 kts | 192° |
| 2026-05-06 18:12 | 48.97475 | 16.42899 | 17992 ft | 356 kts | 192° |
| 2026-05-06 18:13 | 48.95024 | 16.42236 | 17200 ft | 359 kts | 192° |
| 2026-05-06 18:13 | 48.92570 | 16.41569 | 16558 ft | 357 kts | 192° |
| 2026-05-06 18:13 | 48.90163 | 16.40920 | 15977 ft | 355 kts | 192° |
| 2026-05-06 18:13 | 48.87739 | 16.40229 | 15417 ft | 353 kts | 193° |
| 2026-05-06 18:14 | 48.85313 | 16.39454 | 14847 ft | 351 kts | 194° |
| 2026-05-06 18:14 | 48.82937 | 16.38654 | 14287 ft | 349 kts | 194° |
| 2026-05-06 18:14 | 48.80575 | 16.37846 | 13746 ft | 347 kts | 194° |
| 2026-05-06 18:14 | 48.78220 | 16.37044 | 13173 ft | 346 kts | 194° |
| 2026-05-06 18:15 | 48.75881 | 16.36252 | 12585 ft | 343 kts | 193° |
| 2026-05-06 18:15 | 48.73595 | 16.35484 | 12069 ft | 339 kts | 193° |
| 2026-05-06 18:15 | 48.71299 | 16.34722 | 11495 ft | 337 kts | 193° |
| 2026-05-06 18:15 | 48.69018 | 16.33970 | 10917 ft | 335 kts | 193° |
| 2026-05-06 18:16 | 48.66752 | 16.33228 | 10356 ft | 332 kts | 193° |
| 2026-05-06 18:16 | 48.64505 | 16.32492 | 9803 ft | 329 kts | 193° |
| 2026-05-06 18:16 | 48.62271 | 16.31757 | 9196 ft | 327 kts | 193° |
| 2026-05-06 18:16 | 48.60090 | 16.31039 | 9005 ft | 313 kts | 193° |
| 2026-05-06 18:17 | 48.57994 | 16.30349 | 8700 ft | 305 kts | 193° |
| 2026-05-06 18:17 | 48.55934 | 16.29672 | 8253 ft | 302 kts | 193° |
| 2026-05-06 18:17 | 48.53890 | 16.29002 | 7759 ft | 300 kts | 193° |
| 2026-05-06 18:17 | 48.51856 | 16.28338 | 7291 ft | 298 kts | 193° |
| 2026-05-06 18:18 | 48.49839 | 16.27681 | 6828 ft | 296 kts | 193° |
| 2026-05-06 18:18 | 48.47831 | 16.27024 | 6358 ft | 294 kts | 193° |
| 2026-05-06 18:18 | 48.45834 | 16.26368 | 5871 ft | 293 kts | 194° |
| 2026-05-06 18:18 | 48.43850 | 16.25717 | 5373 ft | 291 kts | 193° |
| 2026-05-06 18:19 | 48.41885 | 16.25072 | 5012 ft | 286 kts | 193° |
| 2026-05-06 18:19 | 48.39998 | 16.24457 | 4948 ft | 268 kts | 193° |
| 2026-05-06 18:19 | 48.38217 | 16.23879 | 4960 ft | 258 kts | 194° |
| 2026-05-06 18:19 | 48.36476 | 16.23270 | 4960 ft | 256 kts | 198° |
| 2026-05-06 18:20 | 48.34788 | 16.22445 | 4962 ft | 254 kts | 200° |
| 2026-05-06 18:20 | 48.33114 | 16.21586 | 4963 ft | 252 kts | 200° |
| 2026-05-06 18:20 | 48.31515 | 16.20755 | 4918 ft | 236 kts | 200° |
| 2026-05-06 18:20 | 48.29968 | 16.20173 | 4797 ft | 226 kts | 184° |
| 2026-05-06 18:21 | 48.28451 | 16.20736 | 4571 ft | 228 kts | 160° |
| 2026-05-06 18:21 | 48.27049 | 16.21843 | 4219 ft | 228 kts | 156° |
| 2026-05-06 18:21 | 48.26138 | 16.22619 | 4002 ft | 225 kts | 155° |
| 2026-05-06 18:21 | 48.24343 | 16.24177 | 3986 ft | 226 kts | 155° |
| 2026-05-06 18:22 | 48.23422 | 16.24977 | 3981 ft | 225 kts | 155° |
| 2026-05-06 18:22 | 48.22117 | 16.26112 | 3979 ft | 209 kts | 155° |
| 2026-05-06 18:22 | 48.20607 | 16.27821 | 3993 ft | 207 kts | 134° |
| 2026-05-06 18:22 | 48.20118 | 16.29075 | 3982 ft | 205 kts | 122° |
| 2026-05-06 18:23 | 48.19312 | 16.31592 | 3798 ft | 201 kts | 122° |
| 2026-05-06 18:23 | 48.18902 | 16.32871 | 3636 ft | 202 kts | 122° |
| 2026-05-06 18:23 | 48.18286 | 16.34778 | 3378 ft | 205 kts | 122° |
| 2026-05-06 18:23 | 48.17663 | 16.36711 | 3103 ft | 207 kts | 123° |
| 2026-05-06 18:24 | 48.17050 | 16.38617 | 2809 ft | 198 kts | 123° |
| 2026-05-06 18:24 | 48.16465 | 16.40430 | 2550 ft | 189 kts | 123° |
| 2026-05-06 18:24 | 48.15910 | 16.42150 | 2324 ft | 176 kts | 123° |
| 2026-05-06 18:24 | 48.15396 | 16.43740 | 2085 ft | 163 kts | 123° |
| 2026-05-06 18:25 | 48.14921 | 16.45207 | 1869 ft | 149 kts | 123° |
| 2026-05-06 18:25 | 48.14497 | 16.46521 | 1674 ft | 133 kts | 125° |
| 2026-05-06 18:25 | 48.14102 | 16.47733 | 1481 ft | 128 kts | 124° |
| 2026-05-06 18:25 | 48.13719 | 16.48906 | 1293 ft | 127 kts | 124° |
| 2026-05-06 18:26 | 48.13336 | 16.50084 | 1116 ft | 125 kts | 122° |
| 2026-05-06 18:26 | 48.12952 | 16.51266 | 950 ft | 124 kts | 121° |
| 2026-05-06 18:26 | 48.12581 | 16.52410 | 781 ft | 123 kts | 121° |
| 2026-05-06 18:26 | 48.12208 | 16.53558 | 631 ft | 120 kts | 120° |
| 2026-05-06 18:27 | 48.11917 | 16.54451 | 617 ft | 58 kts | 115° |
| 2026-05-06 18:27 | 48.11812 | 16.54785 | 617 ft | 25 kts | 111° |
| 2026-05-06 18:27 | 48.11808 | 16.55016 | 618 ft | 16 kts | 75° |
| 2026-05-06 18:27 | 48.11852 | 16.55131 | 613 ft | 0 kts | 31° |
| 2026-05-06 18:28 | 48.11860 | 16.55139 | 612 ft | 3 kts | 31° |
| 2026-05-06 18:28 | 48.11883 | 16.55170 | 618 ft | 7 kts | 57° |
| 2026-05-06 18:29 | 48.11872 | 16.55239 | 622 ft | 8 kts | 118° |
| 2026-05-06 18:29 | 48.11842 | 16.55331 | 617 ft | 11 kts | 114° |
| 2026-05-06 18:29 | 48.11857 | 16.55425 | 617 ft | 11 kts | 25° |
| 2026-05-06 18:29 | 48.11916 | 16.55441 | 610 ft | 7 kts | 13° |
| 2026-05-06 18:30 | 48.11960 | 16.55470 | 615 ft | 7 kts | 26° |
| 2026-05-06 18:30 | 48.11989 | 16.55480 | 610 ft | 4 kts | 348° |
| 2026-05-06 18:30 | 48.12006 | 16.55442 | 619 ft | 4 kts | 296° |
| 2026-05-06 18:30 | 48.12014 | 16.55418 | 615 ft | 1 kts | 296° |
| 2026-05-06 18:31 | 48.12015 | 16.55416 | 619 ft | 0 kts | 296° |